イスタンブル の空港の天気 - METARとTAF

アタテュルク国際空港(イスタンブル) ( LTBA / IST ) - トルコ イスタンブル
飛行場実況気象(Metar)
観測時間03/28 23:50 +03 (03/28 20:50 UTC)
風向・風速北東 3m/s
視程10km以上
天気現象
なし
気温10℃
湿度46%
気圧1021hPa
METARLTBA 282050Z 04005KT 020V090 CAVOK 10/M01 Q1021 NOSIG RMK RWY17L 00000KT RWY05 04005KT RWY23 04003KT
過去の天気等 Google飛行場航空写真 Wunderground天気予報

過去48時間のMETAR

飛行場予報(TAF)
発表時間: 3/28 19:40 +03 (3/28 16:40 UTC)
予報対象時間: 28日21時 +03 ~ 30日3時 +03
風向・風速北北東 4m/s
視程10km以上
なし
TAF LTBA 281640Z 2818/2924 03008KT CAVOK